Terminal Aerodrome Forecast
Issued by NWS

Home | Current Version | Previous Version | Text Only | Print | Product List | Glossary On
Versions: 1 2 3 4 5 6 7 8 9 10 11 12 13 14 15 16
000
FTUS42 KTBW 031722
TAFLAL
TAF
KLAL 031722Z 0318/0418 28004KT P6SM SCT030 SCT250
     FM031900 28007KT P6SM VCTS SCT040CB SCT250
     FM040000 29004KT P6SM SCT045 BKN250
     FM040500 VRB03KT P6SM FEW025 SCT250
     FM041600 31005KT P6SM SCT030 SCT250=

USA.gov is the U.S. government's official web portal to all federal, state and local government web resources and services.